Time;durP1;ratioP1;P1;durP2;ratioP2;P2;SDS_P1;SDS_P2;PMS_P1;PMS_P2;Temp;Humidity;BMP_temperature;BMP_pressure;BME280_temperature;BME280_humidity;BME280_pressure;Samples;Min_cycle;Max_cycle;Signal;HPM_P1;HPM_P2
2023/11/26 00:01:53;;;;;;;;;25.67;23.67;;;;;6.18;100.00;97335.50;6189383;28;96810;-63
2023/11/26 00:04:57;;;;;;;;;24.40;22.00;;;;;6.14;100.00;97329.00;6213991;28;96269;-60
2023/11/26 00:08:00;;;;;;;;;22.00;22.00;;;;;6.17;100.00;97326.66;6213508;28;96337;-62
2023/11/26 00:11:03;;;;;;;;;25.00;23.00;;;;;6.17;100.00;97340.03;6195331;28;97403;-60
2023/11/26 00:14:08;;;;;;;;;22.25;19.50;;;;;5.98;100.00;97347.34;6212469;28;97526;-60
2023/11/26 00:17:11;;;;;;;;;26.00;24.75;;;;;5.93;100.00;97339.19;6195800;28;98222;-60
2023/11/26 00:20:14;;;;;;;;;24.40;23.20;;;;;5.97;100.00;97348.38;6196238;28;96269;-60
2023/11/26 00:23:18;;;;;;;;;25.00;24.00;;;;;5.95;100.00;97345.13;6195693;28;96797;-60
2023/11/26 00:26:21;;;;;;;;;26.80;24.40;;;;;6.01;100.00;97346.88;6195475;28;96951;-60
2023/11/26 00:29:40;;;;;;;;;26.50;24.75;;;;;6.02;100.00;97343.16;6213727;28;96410;-60
2023/11/26 00:32:43;;;;;;;;;23.40;21.80;;;;;6.00;100.00;97323.06;6220674;28;96237;-60
2023/11/26 00:35:47;;;;;;;;;25.00;24.00;;;;;6.13;100.00;97333.53;6220017;28;96344;-60
2023/11/26 00:38:52;;;;;;;;;25.60;24.60;;;;;6.19;100.00;97346.00;6218909;28;96398;-61
2023/11/26 00:41:56;;;;;;;;;25.00;23.00;;;;;6.31;100.00;97337.94;6237256;28;96464;-61
2023/11/26 00:45:01;;;;;;;;;23.60;23.00;;;;;6.15;100.00;97349.34;6195998;28;96926;-61
2023/11/26 00:48:04;;;;;;;;;25.60;23.60;;;;;6.14;100.00;97347.72;6193424;28;98583;-60
2023/11/26 00:51:08;;;;;;;;;24.33;22.00;;;;;6.08;100.00;97346.78;6212735;28;96789;-60
2023/11/26 00:54:11;;;;;;;;;24.25;22.25;;;;;6.20;100.00;97360.19;6178096;28;97041;-60
2023/11/26 00:57:15;;;;;;;;;23.60;22.60;;;;;6.23;100.00;97343.66;6211667;28;96952;-60
2023/11/26 01:00:19;;;;;;;;;25.00;24.00;;;;;6.28;100.00;97333.88;6195271;28;96327;-61
2023/11/26 01:03:23;;;;;;;;;25.40;24.00;;;;;6.46;100.00;97359.72;6204137;28;96307;-61
2023/11/26 01:06:26;;;;;;;;;27.60;25.00;;;;;6.29;100.00;97345.41;6214810;28;97112;-66
2023/11/26 01:09:29;;;;;;;;;28.00;26.00;;;;;6.46;100.00;97349.00;6218288;28;98475;-66
2023/11/26 01:12:32;;;;;;;;;24.00;23.40;;;;;6.52;100.00;97350.75;6222889;28;96349;-66
2023/11/26 01:15:38;;;;;;;;;25.00;22.00;;;;;6.56;100.00;97349.25;6205355;28;98867;-65
2023/11/26 01:18:41;;;;;;;;;25.00;24.00;;;;;6.61;100.00;97357.41;6188007;28;98107;-65
2023/11/26 01:21:45;;;;;;;;;26.20;25.00;;;;;6.60;100.00;97352.28;6197641;28;96243;-65
2023/11/26 01:24:48;;;;;;;;;31.80;28.80;;;;;6.64;100.00;97361.47;6180460;28;99142;-65
2023/11/26 01:27:51;;;;;;;;;29.80;27.20;;;;;6.71;100.00;97349.59;6215347;28;96628;-65
2023/11/26 01:30:55;;;;;;;;;29.25;26.25;;;;;6.77;100.00;97364.72;6196661;28;96844;-68
2023/11/26 01:33:59;;;;;;;;;25.00;23.60;;;;;6.77;100.00;97359.38;6196879;28;96854;-65
2023/11/26 01:37:03;;;;;;;;;29.00;28.00;;;;;6.76;100.00;97357.72;6171773;28;96778;-65
2023/11/26 01:40:10;;;;;;;;;28.60;27.60;;;;;6.88;100.00;97369.25;6156070;28;98527;-65
2023/11/26 01:43:13;;;;;;;;;25.00;24.40;;;;;7.02;100.00;97377.03;6190246;28;96360;-65
2023/11/26 01:46:19;;;;;;;;;30.80;29.00;;;;;7.09;100.00;97378.53;6171892;28;98380;-66
2023/11/26 01:49:23;;;;;;;;;30.00;29.00;;;;;7.18;100.00;97376.31;6172107;28;98465;-66
2023/11/26 01:52:27;;;;;;;;;27.80;24.80;;;;;7.11;100.00;97384.47;6212457;28;96941;-66
2023/11/26 01:55:30;;;;;;;;;27.00;25.00;;;;;7.09;100.00;97388.44;6199809;28;98415;-66
2023/11/26 01:58:34;;;;;;;;;21.00;19.00;;;;;7.07;100.00;97390.53;6196902;28;96320;-66
2023/11/26 02:01:41;;;;;;;;;24.60;21.60;;;;;7.05;100.00;97387.28;6217130;28;96305;-76
2023/11/26 02:04:44;;;;;;;;;21.00;20.60;;;;;7.08;100.00;97390.31;6217666;22;97690;-69
2023/11/26 02:07:48;;;;;;;;;25.60;25.00;;;;;7.04;100.00;97394.50;6205295;28;96675;-69
2023/11/26 02:10:51;;;;;;;;;22.50;20.00;;;;;7.09;100.00;97405.31;6173156;28;96300;-68
2023/11/26 02:13:54;;;;;;;;;20.75;18.75;;;;;7.16;100.00;97402.53;6205388;28;96173;-69
2023/11/26 02:16:59;;;;;;;;;16.00;13.60;;;;;7.12;100.00;97406.72;6172505;28;96403;-69
2023/11/26 02:20:06;;;;;;;;;13.25;12.25;;;;;7.16;100.00;97405.19;6190088;28;96228;-69
2023/11/26 02:23:10;;;;;;;;;11.00;9.00;;;;;7.18;100.00;97403.94;6175561;28;96565;-69
2023/11/26 02:26:15;;;;;;;;;11.60;11.60;;;;;7.14;100.00;97413.47;6189905;28;96536;-69
2023/11/26 02:29:19;;;;;;;;;13.00;12.00;;;;;7.13;100.00;97427.13;6189379;28;96192;-68
2023/11/26 02:32:22;;;;;;;;;10.40;9.60;;;;;7.07;100.00;97423.53;6171037;28;98590;-69
2023/11/26 02:35:26;;;;;;;;;10.80;10.80;;;;;7.10;100.00;97430.25;6188354;28;96422;-68
2023/11/26 02:38:29;;;;;;;;;12.00;11.00;;;;;7.05;100.00;97417.56;6170887;28;97435;-69
2023/11/26 02:41:35;;;;;;;;;10.40;10.40;;;;;7.06;100.00;97421.06;6187841;28;96740;-68
2023/11/26 02:44:38;;;;;;;;;11.50;11.50;;;;;7.06;100.00;97429.09;6187721;28;96519;-68
2023/11/26 02:47:43;;;;;;;;;8.50;8.00;;;;;7.05;100.00;97427.47;6170902;28;96279;-69
2023/11/26 02:50:47;;;;;;;;;9.00;9.00;;;;;7.03;100.00;97434.94;6170739;28;96365;-68
2023/11/26 02:53:51;;;;;;;;;5.00;4.80;;;;;6.97;100.00;97434.81;6146701;28;97061;-68
2023/11/26 02:56:55;;;;;;;;;7.00;7.00;;;;;6.95;100.00;97433.41;6187095;28;96227;-69
2023/11/26 03:00:00;;;;;;;;;9.00;8.67;;;;;6.92;100.00;97437.38;6187959;28;96976;-69
2023/11/26 03:03:05;;;;;;;;;8.00;7.00;;;;;6.86;100.00;97442.84;6157580;28;96282;-69
2023/11/26 03:06:11;;;;;;;;;8.75;8.50;;;;;6.82;100.00;97452.41;6163477;28;96255;-69
2023/11/26 03:09:37;;;;;;;;;9.60;8.60;;;;;6.75;100.00;97446.34;6149635;28;96928;-69
2023/11/26 03:13:06;;;;;;;;;7.80;7.20;;;;;6.72;100.00;97444.94;6185693;28;96140;-69
2023/11/26 03:16:12;;;;;;;;;9.60;8.00;;;;;6.73;100.00;97440.41;6170515;28;96374;-73
2023/11/26 03:19:15;;;;;;;;;9.60;9.40;;;;;6.69;100.00;97458.00;6187609;28;96225;-73
2023/11/26 03:22:18;;;;;;;;;10.00;10.00;;;;;6.65;100.00;97456.81;6170078;28;96372;-73
2023/11/26 03:25:21;;;;;;;;;7.00;7.00;;;;;6.65;100.00;97462.16;6169568;28;96748;-73
2023/11/26 03:28:26;;;;;;;;;7.40;7.00;;;;;6.57;100.00;97455.31;6169767;28;98601;-73
2023/11/26 03:31:30;;;;;;;;;6.00;6.00;;;;;6.57;100.00;97457.97;6192347;28;96357;-73
2023/11/26 03:34:34;;;;;;;;;8.00;7.00;;;;;6.55;100.00;97461.94;6182405;28;96348;-72
2023/11/26 03:37:37;;;;;;;;;8.00;8.00;;;;;6.55;100.00;97468.09;6153321;28;98774;-73
2023/11/26 03:40:41;;;;;;;;;9.60;8.60;;;;;6.56;100.00;97471.59;6171085;28;96410;-73
2023/11/26 03:43:45;;;;;;;;;7.60;7.20;;;;;6.50;100.00;97473.31;6170427;28;96388;-73
2023/11/26 03:46:48;;;;;;;;;10.00;10.00;;;;;6.46;100.00;97474.81;6170558;28;96396;-73
2023/11/26 03:49:52;;;;;;;;;8.40;8.40;;;;;6.44;100.00;97476.94;6170324;28;98856;-72
2023/11/26 03:52:56;;;;;;;;;6.00;6.00;;;;;6.37;100.00;97481.56;6153306;28;96641;-73
2023/11/26 03:55:59;;;;;;;;;7.40;6.00;;;;;6.41;100.00;97493.44;6170619;28;96299;-73
2023/11/26 03:59:03;;;;;;;;;8.40;8.00;;;;;6.46;100.00;97490.88;6188349;28;96472;-73
2023/11/26 04:02:07;;;;;;;;;7.00;6.40;;;;;6.41;100.00;97496.09;6170315;28;96753;-73
2023/11/26 04:05:11;;;;;;;;;9.00;9.00;;;;;6.38;100.00;97500.06;6184362;28;96699;-73
2023/11/26 04:08:14;;;;;;;;;10.20;9.60;;;;;6.37;100.00;97501.13;6170053;28;96905;-73
2023/11/26 04:11:17;;;;;;;;;8.00;8.00;;;;;6.43;100.00;97508.25;6188032;28;96880;-73
2023/11/26 04:14:21;;;;;;;;;10.60;8.60;;;;;6.46;100.00;97512.31;6187884;28;96853;-72
2023/11/26 04:17:26;;;;;;;;;9.00;8.00;;;;;6.32;100.00;97495.63;6186663;28;96482;-72
2023/11/26 04:20:29;;;;;;;;;10.20;10.00;;;;;6.42;100.00;97509.28;6187675;28;96836;-73
2023/11/26 04:23:32;;;;;;;;;10.00;10.00;;;;;6.36;100.00;97512.84;6168060;28;96845;-73
2023/11/26 04:26:36;;;;;;;;;8.40;8.00;;;;;6.38;100.00;97523.34;6169080;28;96286;-68
2023/11/26 04:29:50;;;;;;;;;7.80;7.80;;;;;6.40;100.00;97529.31;6170576;28;96636;-69
2023/11/26 04:32:53;;;;;;;;;8.20;7.60;;;;;6.35;100.00;97537.19;6189462;28;96263;-69
2023/11/26 04:35:56;;;;;;;;;10.75;9.75;;;;;6.40;100.00;97546.16;6187909;28;96652;-68
2023/11/26 04:39:00;;;;;;;;;9.80;9.20;;;;;6.35;100.00;97531.84;6165792;28;96723;-68
2023/11/26 04:42:03;;;;;;;;;10.00;10.00;;;;;6.44;100.00;97552.72;6185618;28;97140;-69
2023/11/26 04:45:09;;;;;;;;;9.60;9.00;;;;;6.50;100.00;97553.63;6186560;28;96248;-68
2023/11/26 04:48:12;;;;;;;;;11.00;11.00;;;;;6.57;100.00;97550.88;6188570;28;96349;-68
2023/11/26 04:51:15;;;;;;;;;8.00;8.00;;;;;6.53;100.00;97553.19;6188907;28;98205;-69
2023/11/26 04:54:21;;;;;;;;;9.00;9.00;;;;;6.59;100.00;97568.34;6153660;28;96834;-69
2023/11/26 04:57:24;;;;;;;;;11.00;11.00;;;;;6.53;100.00;97569.25;6189136;28;96852;-69
2023/11/26 05:00:29;;;;;;;;;11.00;9.80;;;;;6.54;100.00;97573.56;6188599;28;96240;-68
2023/11/26 05:03:33;;;;;;;;;13.40;12.40;;;;;6.52;100.00;97572.97;6188273;28;96325;-68
2023/11/26 05:06:36;;;;;;;;;9.00;9.00;;;;;6.56;100.00;97581.34;6176779;28;96871;-69
2023/11/26 05:09:39;;;;;;;;;12.00;10.80;;;;;6.60;100.00;97579.88;6171302;28;96588;-69
2023/11/26 05:12:43;;;;;;;;;11.40;11.00;;;;;6.55;100.00;97587.78;6194711;28;96250;-68
2023/11/26 05:15:47;;;;;;;;;14.00;13.00;;;;;6.52;100.00;97592.53;6168221;28;98448;-69
2023/11/26 05:18:51;;;;;;;;;11.40;11.00;;;;;6.43;100.00;97599.25;6189160;28;96307;-68
2023/11/26 05:21:54;;;;;;;;;13.40;13.40;;;;;6.40;100.00;97607.72;6167160;28;96630;-69
2023/11/26 05:24:57;;;;;;;;;12.60;12.00;;;;;6.38;100.00;97617.84;6166262;28;96844;-68
2023/11/26 05:28:00;;;;;;;;;14.00;14.00;;;;;6.33;100.00;97622.25;6190546;28;96435;-69
2023/11/26 05:31:05;;;;;;;;;11.33;11.00;;;;;6.27;100.00;97631.16;6157691;28;96797;-69
2023/11/26 05:34:08;;;;;;;;;9.60;9.60;;;;;6.18;100.00;97636.00;6191143;28;96147;-69
2023/11/26 05:37:11;;;;;;;;;8.75;7.50;;;;;6.16;100.00;97648.00;6179775;28;98501;-66
2023/11/26 05:40:15;;;;;;;;;11.00;9.60;;;;;6.17;100.00;97646.94;6168484;28;96697;-65
2023/11/26 05:43:19;;;;;;;;;8.00;8.00;;;;;6.15;100.00;97655.19;6169119;28;96164;-66
2023/11/26 05:46:23;;;;;;;;;9.40;9.00;;;;;5.93;100.00;97657.47;6177270;28;96380;-66
2023/11/26 05:49:27;;;;;;;;;9.00;9.00;;;;;6.02;100.00;97655.31;6162927;28;96274;-66
2023/11/26 05:52:31;;;;;;;;;8.00;7.00;;;;;5.97;100.00;97673.91;6161882;28;96411;-67
2023/11/26 05:55:34;;;;;;;;;10.00;9.00;;;;;6.07;100.00;97674.19;6179794;28;97416;-66
2023/11/26 05:58:37;;;;;;;;;7.00;6.00;;;;;6.05;100.00;97674.44;6185710;28;96296;-66
2023/11/26 06:01:41;;;;;;;;;9.60;9.00;;;;;5.85;100.00;97681.81;6170527;28;97066;-66
2023/11/26 06:04:44;;;;;;;;;10.40;10.40;;;;;5.87;100.00;97690.47;6153654;28;96690;-66
2023/11/26 06:07:47;;;;;;;;;7.00;7.00;;;;;5.84;100.00;97687.38;6170259;28;96395;-66
2023/11/26 06:10:51;;;;;;;;;11.40;11.00;;;;;5.78;100.00;97689.06;6172702;28;96424;-66
2023/11/26 06:13:54;;;;;;;;;11.60;11.60;;;;;5.78;100.00;97696.28;6190383;28;96432;-66
2023/11/26 06:16:58;;;;;;;;;9.20;9.20;;;;;5.72;100.00;97702.53;6190059;28;96348;-66
2023/11/26 06:20:02;;;;;;;;;8.00;8.00;;;;;5.71;100.00;97707.06;6190270;28;96351;-66
2023/11/26 06:23:05;;;;;;;;;10.00;9.20;;;;;5.72;100.00;97703.31;6190597;28;96235;-66
2023/11/26 06:26:08;;;;;;;;;11.80;11.80;;;;;5.75;100.00;97707.44;6163960;28;96865;-67
2023/11/26 06:29:12;;;;;;;;;9.00;9.00;;;;;5.79;100.00;97711.28;6166858;28;96651;-66
2023/11/26 06:32:17;;;;;;;;;11.00;10.50;;;;;5.89;100.00;97717.00;6190097;28;96757;-66
2023/11/26 06:35:20;;;;;;;;;10.60;10.60;;;;;5.92;100.00;97719.22;6171182;28;97549;-66
2023/11/26 06:38:24;;;;;;;;;13.00;13.00;;;;;5.97;100.00;97722.88;6171060;28;96494;-66
2023/11/26 06:41:28;;;;;;;;;10.00;9.20;;;;;6.02;100.00;97722.22;6169241;28;98632;-66
2023/11/26 06:44:31;;;;;;;;;10.40;9.00;;;;;6.08;100.00;97732.84;6188751;28;96334;-66
2023/11/26 06:47:37;;;;;;;;;11.00;11.00;;;;;6.08;100.00;97737.38;6153741;28;97011;-68
2023/11/26 06:50:40;;;;;;;;;10.00;9.60;;;;;6.11;100.00;97736.13;6167478;28;96951;-69
2023/11/26 06:53:43;;;;;;;;;8.40;8.40;;;;;6.28;100.00;97756.75;6188718;28;96207;-69
2023/11/26 06:56:46;;;;;;;;;9.00;8.25;;;;;6.37;100.00;97754.56;6191244;28;96846;-69
2023/11/26 06:59:49;;;;;;;;;12.00;10.60;;;;;6.40;100.00;97762.97;6171665;28;96891;-69
2023/11/26 07:02:54;;;;;;;;;15.00;14.00;;;;;6.41;100.00;97769.16;6190430;28;96323;-69
2023/11/26 07:05:57;;;;;;;;;13.00;13.00;;;;;6.46;100.00;97769.31;6174724;28;96413;-69
2023/11/26 07:09:00;;;;;;;;;11.00;10.80;;;;;6.44;100.00;97766.88;6193061;28;96319;-68
2023/11/26 07:12:04;;;;;;;;;10.00;10.00;;;;;6.54;100.00;97782.41;6193122;28;96342;-69
2023/11/26 07:15:09;;;;;;;;;14.00;13.00;;;;;6.57;100.00;97771.25;6172824;28;96294;-69
2023/11/26 07:18:14;;;;;;;;;12.00;11.00;;;;;6.69;100.00;97785.53;6164823;28;96754;-68
2023/11/26 07:21:17;;;;;;;;;11.40;10.00;;;;;6.70;100.00;97775.63;6166478;28;96373;-69
2023/11/26 07:24:21;;;;;;;;;11.60;11.00;;;;;6.86;100.00;97781.19;6168626;28;97313;-68
2023/11/26 07:27:24;;;;;;;;;9.00;9.00;;;;;6.89;100.00;97777.28;6182801;28;98477;-68
2023/11/26 07:30:27;;;;;;;;;10.40;9.40;;;;;6.99;100.00;97774.84;6178102;28;97487;-68
2023/11/26 07:33:32;;;;;;;;;9.00;8.00;;;;;7.08;100.00;97783.41;6194142;28;96860;-69
2023/11/26 07:36:35;;;;;;;;;7.60;7.40;;;;;7.09;100.00;97795.75;6187501;28;96761;-68
2023/11/26 07:39:38;;;;;;;;;9.20;8.60;;;;;7.10;100.00;97803.56;6190681;28;96345;-69
2023/11/26 07:42:41;;;;;;;;;9.00;8.00;;;;;7.12;100.00;97798.00;6195313;28;96528;-69
2023/11/26 07:45:45;;;;;;;;;9.00;9.00;;;;;7.11;100.00;97801.72;6151138;28;99553;-69
2023/11/26 07:48:49;;;;;;;;;7.25;7.00;;;;;6.99;100.00;97784.78;6186132;28;97040;-68
2023/11/26 07:51:53;;;;;;;;;10.00;9.20;;;;;7.11;100.00;97801.72;6163488;28;97037;-68
2023/11/26 07:54:57;;;;;;;;;10.00;9.00;;;;;7.11;100.00;97804.38;6173539;28;96806;-66
2023/11/26 07:58:00;;;;;;;;;9.60;9.00;;;;;7.11;100.00;97807.88;6158220;28;97205;-66
2023/11/26 08:01:04;;;;;;;;;12.00;11.00;;;;;7.11;100.00;97794.50;6166382;28;98459;-66
2023/11/26 08:04:09;;;;;;;;;10.50;9.75;;;;;7.06;100.00;97789.00;6189008;28;96639;-66
2023/11/26 08:07:12;;;;;;;;;13.75;12.75;;;;;7.08;100.00;97792.28;6186255;28;96800;-66
2023/11/26 08:10:20;;;;;;;;;10.20;10.20;;;;;7.21;100.00;97799.31;6184524;28;96474;-66
2023/11/26 08:13:27;;;;;;;;;10.33;10.00;;;;;7.49;100.00;97802.22;6182905;28;97189;-66
2023/11/26 08:16:30;;;;;;;;;10.40;10.40;;;;;7.87;100.00;97799.16;6186175;28;96520;-66
2023/11/26 08:19:36;;;;;;;;;11.00;10.00;;;;;8.62;100.00;97802.84;6174109;28;96905;-66
2023/11/26 08:22:40;;;;;;;;;12.00;11.00;;;;;9.90;94.09;97798.84;6185984;28;96837;-66
2023/11/26 08:25:44;;;;;;;;;14.50;13.50;;;;;11.12;85.19;97801.47;6185840;28;96300;-65
2023/11/26 08:28:51;;;;;;;;;11.00;11.00;;;;;12.75;68.03;97813.53;6197068;28;99046;-65
2023/11/26 08:31:57;;;;;;;;;11.00;11.00;;;;;13.54;63.49;97807.91;6184665;28;96566;-66
2023/11/26 08:35:03;;;;;;;;;9.00;8.60;;;;;13.72;56.97;97815.56;6185474;28;96818;-65
2023/11/26 08:38:06;;;;;;;;;12.00;11.00;;;;;13.89;55.58;97821.53;6186786;28;96510;-64
2023/11/26 08:41:11;;;;;;;;;11.20;10.80;;;;;14.20;52.22;97808.03;6149979;28;96686;-65
2023/11/26 08:44:14;;;;;;;;;12.00;11.00;;;;;14.38;48.93;97818.34;6164595;28;96851;-64
2023/11/26 08:47:20;;;;;;;;;9.75;9.75;;;;;14.64;47.12;97822.66;6181913;28;96341;-64
2023/11/26 08:50:24;;;;;;;;;8.00;8.00;;;;;15.17;47.06;97828.50;6169320;28;99238;-65
2023/11/26 08:53:29;;;;;;;;;8.00;8.00;;;;;15.10;43.56;97831.50;6166831;28;97937;-65
2023/11/26 08:56:33;;;;;;;;;10.80;10.40;;;;;14.70;43.37;97832.44;6167963;28;96984;-64
2023/11/26 08:59:36;;;;;;;;;9.00;9.00;;;;;14.36;43.85;97825.09;6178501;28;96372;-64
2023/11/26 09:02:40;;;;;;;;;7.00;7.00;;;;;13.67;44.24;97831.81;6185539;28;96907;-64
2023/11/26 09:05:46;;;;;;;;;7.00;6.75;;;;;13.43;45.74;97836.88;6171127;28;96397;-71
2023/11/26 09:08:50;;;;;;;;;8.00;7.40;;;;;15.04;40.14;97829.91;6185699;28;96805;-72
2023/11/26 09:11:54;;;;;;;;;7.20;7.00;;;;;16.46;37.27;97838.09;6186202;28;96785;-71
2023/11/26 09:14:57;;;;;;;;;6.00;5.50;;;;;17.98;33.24;97825.53;6169414;28;96401;-71
2023/11/26 09:18:00;;;;;;;;;9.00;8.00;;;;;18.15;32.73;97841.34;6181215;28;96421;-72
2023/11/26 09:21:06;;;;;;;;;6.80;5.80;;;;;18.67;32.11;97839.47;6179605;28;96182;-71
2023/11/26 09:24:09;;;;;;;;;7.00;7.00;;;;;18.22;31.21;97838.25;6185806;28;96553;-71
2023/11/26 09:27:12;;;;;;;;;5.00;5.00;;;;;19.30;31.50;97842.38;6163695;28;98466;-72
2023/11/26 09:30:15;;;;;;;;;7.00;7.00;;;;;18.82;30.94;97848.16;6146930;28;96710;-72
2023/11/26 09:33:19;;;;;;;;;5.00;4.80;;;;;17.66;32.32;97844.50;6169953;28;96632;-71
2023/11/26 09:36:23;;;;;;;;;8.00;7.00;;;;;16.36;33.58;97838.19;6186795;28;96983;-72
2023/11/26 09:39:27;;;;;;;;;6.00;5.80;;;;;16.16;34.99;97835.63;6189739;28;97215;-72
2023/11/26 09:42:30;;;;;;;;;9.00;8.50;;;;;15.64;36.02;97841.63;6190558;28;96829;-72
2023/11/26 09:45:34;;;;;;;;;7.67;6.67;;;;;15.05;37.74;97834.22;6147146;28;98553;-72
2023/11/26 09:48:37;;;;;;;;;9.00;8.60;;;;;14.63;38.63;97840.03;6165887;28;96971;-72
2023/11/26 09:51:41;;;;;;;;;6.75;6.75;;;;;14.59;39.85;97840.84;6186019;28;96951;-73
2023/11/26 09:54:45;;;;;;;;;7.40;7.00;;;;;14.67;38.84;97843.00;6169125;28;98667;-70
2023/11/26 09:57:48;;;;;;;;;5.60;5.60;;;;;15.70;37.33;97834.28;6184650;28;96333;-71
2023/11/26 10:00:51;;;;;;;;;7.00;6.40;;;;;16.41;36.02;97840.06;6154521;28;96806;-73
2023/11/26 10:03:58;;;;;;;;;6.00;5.00;;;;;16.15;35.78;97857.66;6186795;28;97128;-72
2023/11/26 10:07:03;;;;;;;;;4.40;4.00;;;;;15.51;37.26;97855.81;6167333;28;96333;-72
2023/11/26 10:10:09;;;;;;;;;7.00;6.00;;;;;14.48;39.42;97861.72;6168862;28;98531;-73
2023/11/26 10:13:13;;;;;;;;;4.00;3.75;;;;;13.01;40.94;97879.38;6184837;28;96508;-73
2023/11/26 10:16:35;;;;;;;;;7.20;7.00;;;;;12.07;47.08;97876.50;6169887;28;96683;-72
2023/11/26 10:19:39;;;;;;;;;7.00;6.00;;;;;11.07;51.29;97880.44;6179847;28;97655;-70
2023/11/26 10:22:46;;;;;;;;;6.00;6.00;;;;;10.06;57.26;97886.91;6176696;28;98558;-71
2023/11/26 10:25:49;;;;;;;;;5.00;5.00;;;;;9.54;61.49;97896.97;6163704;28;98383;-71
2023/11/26 10:29:00;;;;;;;;;5.00;4.40;;;;;9.08;66.19;97896.03;6189095;28;96311;-71
2023/11/26 10:32:06;;;;;;;;;6.00;6.00;;;;;9.03;67.67;97892.41;6166893;28;97067;-71
2023/11/26 10:35:09;;;;;;;;;7.00;6.40;;;;;8.93;68.63;97892.19;6180696;28;96370;-69
2023/11/26 10:38:14;;;;;;;;;8.60;8.60;;;;;8.93;68.53;97895.69;6159881;28;96393;-71
2023/11/26 10:41:19;;;;;;;;;6.00;6.00;;;;;8.96;71.10;97899.78;6165368;28;96264;-70
2023/11/26 10:44:23;;;;;;;;;9.00;8.00;;;;;8.71;70.23;97900.00;6177500;28;96897;-69
2023/11/26 10:47:28;;;;;;;;;5.60;5.60;;;;;8.52;72.53;97896.63;6167203;28;96804;-70
2023/11/26 10:50:37;;;;;;;;;6.00;5.40;;;;;8.16;75.52;97899.47;6187803;28;96138;-68
2023/11/26 10:53:50;;;;;;;;;6.00;6.00;;;;;8.27;75.94;97898.66;6166381;28;96741;-68
2023/11/26 10:56:59;;;;;;;;;7.20;7.20;;;;;8.13;77.99;97902.59;6182808;28;96323;-70
2023/11/26 11:00:06;;;;;;;;;7.75;7.75;;;;;8.11;78.27;97897.44;6167421;28;96885;-71
2023/11/26 11:03:10;;;;;;;;;7.25;7.00;;;;;8.10;79.76;97900.38;6150448;28;96588;-71
2023/11/26 11:06:18;;;;;;;;;9.00;9.00;;;;;8.14;79.00;97907.75;6148109;28;98804;-71
2023/11/26 11:09:34;;;;;;;;;6.00;6.00;;;;;8.16;76.61;97900.25;6171129;28;96631;-71
2023/11/26 11:12:49;;;;;;;;;6.75;6.75;;;;;8.61;75.02;97914.03;6162793;28;97372;-70
2023/11/26 11:15:53;;;;;;;;;5.80;5.80;;;;;8.55;71.91;97912.25;6166614;28;98420;-71
2023/11/26 11:18:57;;;;;;;;;6.50;6.00;;;;;8.49;72.81;97915.91;6187288;28;97025;-70
2023/11/26 11:22:00;;;;;;;;;7.40;7.40;;;;;8.34;72.46;97912.84;6173660;28;98961;-70
2023/11/26 11:25:10;;;;;;;;;6.00;6.00;;;;;8.21;74.65;97921.88;6164401;28;96429;-62
2023/11/26 11:28:14;;;;;;;;;8.00;7.50;;;;;8.12;76.82;97914.38;6184967;28;97807;-63
2023/11/26 11:31:18;;;;;;;;;8.40;8.00;;;;;7.87;77.92;97917.22;6192187;28;96376;-62
2023/11/26 11:34:22;;;;;;;;;4.60;4.60;;;;;7.84;80.66;97926.56;6172624;28;96597;-63
2023/11/26 11:38:10;;;;;;;;;7.00;6.00;;;;;7.83;79.30;97937.50;6181331;28;97609;-66
2023/11/26 11:41:15;;;;;;;;;6.00;6.00;;;;;7.85;80.34;97943.47;6177401;28;96334;-63
2023/11/26 11:44:27;;;;;;;;;8.80;8.00;;;;;7.76;80.13;97932.25;6170650;28;96284;-63
2023/11/26 11:47:42;;;;;;;;;6.00;5.00;;;;;7.69;78.26;97936.88;6185349;28;96226;-64
2023/11/26 11:50:46;;;;;;;;;9.00;9.00;;;;;7.71;80.22;97940.16;6183330;28;96612;-62
2023/11/26 11:53:50;;;;;;;;;7.00;6.60;;;;;7.75;83.24;97945.88;6169088;28;98578;-65
2023/11/26 11:56:59;;;;;;;;;9.00;8.80;;;;;7.76;82.58;97942.97;6184642;28;98688;-62
2023/11/26 12:00:08;;;;;;;;;5.50;5.50;;;;;7.65;82.65;97953.63;6184943;28;97116;-63
2023/11/26 12:03:17;;;;;;;;;9.40;9.40;;;;;7.54;80.16;97954.38;6181742;28;96289;-63
2023/11/26 12:06:23;;;;;;;;;8.00;8.00;;;;;7.52;80.99;97951.13;6165396;28;96685;-63
2023/11/26 12:09:26;;;;;;;;;9.00;9.00;;;;;7.48;79.08;97958.78;6182202;28;96308;-62
2023/11/26 12:12:31;;;;;;;;;9.20;9.00;;;;;7.34;82.74;97957.31;6173651;28;99003;-63
2023/11/26 12:15:35;;;;;;;;;9.00;9.00;;;;;7.21;83.06;97950.25;6193418;28;96963;-63
2023/11/26 12:18:38;;;;;;;;;7.50;7.00;;;;;7.22;84.00;97956.41;6176562;28;96542;-63
2023/11/26 12:21:41;;;;;;;;;10.00;9.80;;;;;7.29;82.78;97957.16;6192178;28;96267;-65
2023/11/26 12:24:45;;;;;;;;;8.00;8.00;;;;;7.25;81.00;97959.47;6164292;28;98460;-63
2023/11/26 12:27:50;;;;;;;;;7.00;6.00;;;;;7.13;81.75;97961.25;6191826;28;96998;-63
2023/11/26 12:30:56;;;;;;;;;9.00;8.00;;;;;7.17;81.11;97965.13;6170857;28;98572;-64
2023/11/26 12:33:59;;;;;;;;;8.00;8.00;;;;;6.99;82.39;97962.41;6189162;28;96435;-63
2023/11/26 12:37:03;;;;;;;;;8.00;7.00;;;;;7.03;84.15;97949.41;6187480;28;96834;-71
2023/11/26 12:40:08;;;;;;;;;7.60;7.00;;;;;6.81;82.54;97957.84;6183563;28;96385;-71
2023/11/26 12:43:13;;;;;;;;;9.25;9.00;;;;;6.89;84.38;97970.16;6164008;28;96348;-70
2023/11/26 12:46:16;;;;;;;;;7.80;7.80;;;;;6.95;82.55;97994.19;6164331;28;96632;-71
2023/11/26 12:49:21;;;;;;;;;9.00;8.40;;;;;7.00;84.54;97982.00;6164792;28;96612;-70
2023/11/26 12:52:30;;;;;;;;;7.20;5.60;;;;;6.99;81.46;97980.38;6164068;28;97098;-71
2023/11/26 12:55:33;;;;;;;;;9.25;9.00;;;;;6.79;79.18;97978.66;6172394;28;97210;-70
2023/11/26 12:58:38;;;;;;;;;7.00;7.00;;;;;6.80;81.19;97991.03;6182855;28;96570;-71
2023/11/26 13:01:41;;;;;;;;;10.00;10.00;;;;;6.71;81.22;97995.03;6175689;28;96203;-71
2023/11/26 13:04:44;;;;;;;;;11.00;10.00;;;;;6.70;79.57;98003.28;6185160;28;97085;-72
2023/11/26 13:07:47;;;;;;;;;10.00;10.00;;;;;6.70;78.25;97993.38;6168720;28;96370;-71
2023/11/26 13:10:52;;;;;;;;;9.00;8.40;;;;;6.65;80.67;98006.59;6185928;28;96210;-70
2023/11/26 13:14:04;;;;;;;;;3.00;3.00;;;;;6.59;81.70;98004.00;6168075;28;97196;-72
2023/11/26 13:17:07;;;;;;;;;7.20;7.20;;;;;6.37;80.24;98017.72;6180273;28;96414;-71
2023/11/26 13:20:14;;;;;;;;;7.25;7.25;;;;;6.36;79.74;98023.28;6182395;28;96321;-70
2023/11/26 13:23:19;;;;;;;;;8.00;8.00;;;;;6.38;81.38;98030.09;6163683;28;96990;-71
2023/11/26 13:26:22;;;;;;;;;10.00;9.60;;;;;6.38;79.53;98032.78;6164341;28;99124;-72
2023/11/26 13:29:27;;;;;;;;;8.00;8.00;;;;;6.16;79.15;98017.25;6193805;28;96825;-69
2023/11/26 13:32:31;;;;;;;;;8.00;7.00;;;;;6.18;81.13;98033.91;6186571;28;96605;-70
2023/11/26 13:35:38;;;;;;;;;8.00;7.75;;;;;6.34;81.96;98023.53;6184108;28;97133;-71
2023/11/26 13:38:41;;;;;;;;;8.00;8.00;;;;;6.17;80.03;98034.94;6170537;28;96763;-72
2023/11/26 13:41:44;;;;;;;;;6.00;6.00;;;;;6.20;81.90;98045.25;6170750;28;96772;-71
2023/11/26 13:44:48;;;;;;;;;8.00;8.00;;;;;6.23;81.62;98040.25;6172262;28;96495;-72
2023/11/26 13:47:54;;;;;;;;;9.25;8.50;;;;;6.28;82.92;98048.47;6197527;28;96864;-63
2023/11/26 13:51:13;;;;;;;;;8.40;7.40;;;;;6.18;82.92;98034.72;6170189;28;97442;-64
2023/11/26 13:54:16;;;;;;;;;7.00;7.00;;;;;6.12;82.00;98042.78;6192296;28;97958;-62
2023/11/26 13:57:19;;;;;;;;;9.00;9.00;;;;;6.15;88.57;98053.09;6198278;28;96737;-63
2023/11/26 14:00:24;;;;;;;;;13.20;12.40;;;;;6.17;94.05;98054.50;6168592;28;98351;-64
2023/11/26 14:03:29;;;;;;;;;10.00;9.00;;;;;6.13;97.70;98057.81;6198849;28;96711;-65
2023/11/26 14:06:32;;;;;;;;;9.40;9.00;;;;;6.21;95.34;98054.88;6204456;28;96587;-64
2023/11/26 14:09:35;;;;;;;;;9.60;9.40;;;;;6.24;92.95;98059.81;6175844;28;96978;-63
2023/11/26 14:12:38;;;;;;;;;10.80;10.80;;;;;6.20;93.92;98069.31;6165865;28;96986;-63
2023/11/26 14:15:43;;;;;;;;;9.40;9.40;;;;;6.29;93.17;98070.72;6192729;28;96169;-63
2023/11/26 14:18:46;;;;;;;;;12.00;11.50;;;;;6.13;94.25;98073.88;6193622;28;96820;-65
2023/11/26 14:21:49;;;;;;;;;12.00;12.00;;;;;6.01;96.08;98071.84;6205907;28;98370;-64
2023/11/26 14:24:53;;;;;;;;;13.40;12.60;;;;;6.08;94.20;98067.31;6177063;28;99041;-64